Time;durP1;ratioP1;P1;durP2;ratioP2;P2;SDS_P1;SDS_P2;PMS_P1;PMS_P2;Temp;Humidity;BMP_temperature;BMP_pressure;BME280_temperature;BME280_humidity;BME280_pressure;Samples;Min_cycle;Max_cycle;Signal;HPM_P1;HPM_P2
2022/12/28 00:00:00;;;;;;;16.63;5.57;;;;;;;5.97;100.00;101318.22;5038850;28;20039;-39
2022/12/28 00:02:25;;;;;;;13.68;5.07;;;;;;;5.97;100.00;101322.72;5037073;28;20116;-38
2022/12/28 00:04:51;;;;;;;11.52;5.10;;;;;;;5.97;100.00;101301.34;5049741;28;20057;-38
2022/12/28 00:07:16;;;;;;;11.82;5.13;;;;;;;6.00;100.00;101301.91;5046134;28;20068;-38
2022/12/28 00:09:41;;;;;;;10.43;4.13;;;;;;;6.04;100.00;101297.13;5041333;28;20026;-36
2022/12/28 00:12:07;;;;;;;15.02;5.60;;;;;;;6.04;100.00;101291.78;5028648;28;20087;-36
2022/12/28 00:14:32;;;;;;;18.60;5.68;;;;;;;6.03;100.00;101300.78;5029874;28;20033;-38
2022/12/28 00:16:57;;;;;;;20.63;6.18;;;;;;;6.07;100.00;101287.00;5039174;28;20451;-37
2022/12/28 00:19:23;;;;;;;16.75;5.75;;;;;;;6.07;100.00;101280.81;5043304;28;20029;-36
2022/12/28 00:21:48;;;;;;;12.20;5.05;;;;;;;6.09;100.00;101284.19;5042003;28;20024;-36
2022/12/28 00:24:20;;;;;;;12.98;5.55;;;;;;;6.10;100.00;101272.50;5030038;28;20037;-36
2022/12/28 00:26:45;;;;;;;13.90;5.65;;;;;;;6.12;100.00;101262.53;5029547;28;20029;-39
2022/12/28 00:29:11;;;;;;;16.33;5.93;;;;;;;6.16;100.00;101258.56;5035653;28;20183;-36
2022/12/28 00:31:37;;;;;;;16.90;6.88;;;;;;;6.16;100.00;101255.91;5050703;28;20033;-34
2022/12/28 00:34:02;;;;;;;13.18;5.65;;;;;;;6.13;100.00;101249.03;5052474;28;20031;-37
2022/12/28 00:36:28;;;;;;;14.98;5.70;;;;;;;6.14;100.00;101244.53;5046883;28;20032;-34
2022/12/28 00:38:53;;;;;;;20.05;6.95;;;;;;;6.17;100.00;101227.38;5033566;28;20017;-37
2022/12/28 00:41:19;;;;;;;9.00;5.60;;;;;;;6.24;100.00;101232.00;5032408;28;20021;-36
2022/12/28 00:43:45;;;;;;;15.07;6.28;;;;;;;6.23;100.00;101211.59;5032998;28;20108;-35
2022/12/28 00:46:10;;;;;;;12.60;5.35;;;;;;;6.23;100.00;101216.94;5034982;28;20073;-35
2022/12/28 00:48:36;;;;;;;12.73;6.15;;;;;;;6.27;100.00;101223.69;5053400;28;20024;-35
2022/12/28 00:51:03;;;;;;;19.10;6.45;;;;;;;6.27;100.00;101207.66;5033332;28;20029;-36
2022/12/28 00:53:29;;;;;;;14.88;6.68;;;;;;;6.33;100.00;101212.41;5033897;28;20048;-36
2022/12/28 00:55:54;;;;;;;14.10;6.50;;;;;;;6.37;100.00;101202.25;5032171;28;20477;-37
2022/12/28 00:58:19;;;;;;;17.35;6.55;;;;;;;6.37;100.00;101211.13;5032931;28;20336;-34
2022/12/28 01:00:45;;;;;;;21.15;7.13;;;;;;;6.41;100.00;101197.47;5046234;28;20033;-38
2022/12/28 01:03:10;;;;;;;22.75;6.75;;;;;;;6.45;100.00;101198.84;5050697;28;20040;-35
2022/12/28 01:05:37;;;;;;;13.43;6.47;;;;;;;6.46;100.00;101184.50;5052224;28;20132;-37
2022/12/28 01:08:03;;;;;;;17.90;6.97;;;;;;;6.48;100.00;101204.75;5033766;28;20540;-36
2022/12/28 01:10:28;;;;;;;21.83;7.03;;;;;;;6.50;100.00;101200.13;5044445;28;20119;-34
2022/12/28 01:12:54;;;;;;;10.35;6.25;;;;;;;6.52;100.00;101194.59;5052404;28;20043;-34
2022/12/28 01:15:19;;;;;;;14.23;6.75;;;;;;;6.53;100.00;101172.22;5042443;28;20017;-35
2022/12/28 01:17:44;;;;;;;19.67;7.25;;;;;;;6.54;100.00;101176.59;5046525;28;20048;-35
2022/12/28 01:20:10;;;;;;;14.98;7.30;;;;;;;6.57;100.00;101165.59;5042458;28;20029;-34
2022/12/28 01:22:35;;;;;;;15.75;6.72;;;;;;;6.57;100.00;101174.44;5032239;28;20051;-35
2022/12/28 01:25:01;;;;;;;15.98;6.70;;;;;;;6.57;100.00;101165.59;5048888;28;20461;-36
2022/12/28 01:27:26;;;;;;;10.35;6.63;;;;;;;6.58;100.00;101156.56;5051837;28;20020;-36
2022/12/28 01:29:51;;;;;;;15.77;6.80;;;;;;;6.58;100.00;101167.25;5043392;28;20072;-35
2022/12/28 01:32:16;;;;;;;13.18;6.28;;;;;;;6.59;100.00;101166.28;5045564;28;20039;-36
2022/12/28 01:34:42;;;;;;;16.33;6.95;;;;;;;6.59;100.00;101152.91;5050817;28;20025;-37
2022/12/28 01:37:07;;;;;;;14.10;6.45;;;;;;;6.58;100.00;101153.91;5051212;28;20040;-38
2022/12/28 01:39:32;;;;;;;22.42;7.70;;;;;;;6.58;100.00;101167.25;5051408;28;20104;-37
2022/12/28 01:41:58;;;;;;;17.17;7.03;;;;;;;6.58;100.00;101144.06;5044172;28;20362;-36
2022/12/28 01:44:23;;;;;;;14.25;6.72;;;;;;;6.57;100.00;101138.84;5032511;28;20385;-36
2022/12/28 01:46:52;;;;;;;15.02;6.45;;;;;;;6.59;100.00;101127.00;5031696;28;20408;-36
2022/12/28 01:49:17;;;;;;;14.52;6.68;;;;;;;6.59;100.00;101131.53;5031546;28;20080;-38
2022/12/28 01:51:49;;;;;;;18.13;7.18;;;;;;;6.67;100.00;101110.22;5040159;28;20025;-36
2022/12/28 01:54:15;;;;;;;14.15;6.88;;;;;;;6.66;100.00;101127.28;5049955;28;20041;-36
2022/12/28 01:56:41;;;;;;;11.30;7.65;;;;;;;6.64;100.00;101125.75;5036227;28;20476;-38
2022/12/28 01:59:07;;;;;;;10.95;6.30;;;;;;;6.65;100.00;101114.88;5048636;28;20384;-35
2022/12/28 02:01:32;;;;;;;14.32;7.10;;;;;;;6.65;100.00;101155.00;5045161;28;20040;-35
2022/12/28 02:03:57;;;;;;;16.38;6.97;;;;;;;6.65;100.00;101120.22;5031900;28;20045;-36
2022/12/28 02:06:23;;;;;;;15.55;7.13;;;;;;;6.66;100.00;101127.28;5042483;28;20017;-38
2022/12/28 02:08:56;;;;;;;14.50;6.60;;;;;;;6.72;100.00;101107.09;5041656;28;20469;-38
2022/12/28 02:11:21;;;;;;;12.77;6.70;;;;;;;6.74;100.00;101103.28;5031849;28;20021;-38
2022/12/28 02:13:49;;;;;;;12.15;6.10;;;;;;;6.79;100.00;101117.06;5032378;28;20040;-36
2022/12/28 02:16:15;;;;;;;15.40;6.43;;;;;;;6.80;100.00;101097.31;5038501;28;20103;-36
2022/12/28 02:18:41;;;;;;;12.23;5.72;;;;;;;6.82;100.00;101092.69;5048264;28;20113;-35
2022/12/28 02:21:24;;;;;;;12.52;5.57;;;;;;;6.87;100.00;101086.00;5033088;28;20033;-38
2022/12/28 02:24:08;;;;;;;12.95;6.68;;;;;;;6.88;100.00;101095.75;5052832;28;20033;-36
2022/12/28 02:26:36;;;;;;;11.93;5.88;;;;;;;6.89;100.00;101092.88;5051181;28;20115;-38
2022/12/28 02:29:20;;;;;;;11.00;5.97;;;;;;;6.91;100.00;101084.72;5049980;28;20052;-35
2022/12/28 02:32:24;;;;;;;13.02;6.28;;;;;;;6.95;100.00;101078.94;5042819;28;20037;-37
2022/12/28 02:35:08;;;;;;;11.65;5.60;;;;;;;6.99;100.00;101079.44;5019285;28;20465;-37
2022/12/28 02:37:54;;;;;;;10.93;5.45;;;;;;;6.98;100.00;101067.91;5030862;28;20029;-38
2022/12/28 02:40:30;;;;;;;9.55;5.70;;;;;;;6.99;100.00;101079.44;5029386;28;20491;-36
2022/12/28 02:42:55;;;;;;;16.60;6.55;;;;;;;6.99;100.00;101076.78;5048551;28;20510;-35
2022/12/28 02:51:11;;;;;;;16.58;6.20;;;;;;;7.04;100.00;101051.22;5048061;28;20044;-36
2022/12/28 02:53:56;;;;;;;13.63;5.93;;;;;;;7.08;100.00;101069.66;5050367;28;20033;-37
2022/12/28 02:56:43;;;;;;;16.33;6.43;;;;;;;7.09;100.00;101064.16;5039750;28;20038;-38
2022/12/28 02:59:19;;;;;;;14.07;5.80;;;;;;;7.10;100.00;101076.53;5052617;28;20028;-35
2022/12/28 03:02:02;;;;;;;14.65;6.20;;;;;;;7.13;100.00;101078.91;5035482;28;20079;-36
2022/12/28 03:04:31;;;;;;;14.90;5.75;;;;;;;7.12;100.00;101082.59;5048927;28;20032;-36
2022/12/28 03:10:16;;;;;;;12.70;5.88;;;;;;;7.14;100.00;101077.09;5030067;28;20056;-36
2022/12/28 03:12:47;;;;;;;15.70;5.93;;;;;;;7.14;100.00;101072.56;5043558;28;20036;-35
2022/12/28 03:15:28;;;;;;;11.43;5.60;;;;;;;7.16;100.00;101057.22;5050446;28;20040;-36
2022/12/28 03:31:38;;;;;;;12.27;5.50;;;;;;;7.14;100.00;101095.81;5032149;28;20040;-36
2022/12/28 03:34:07;;;;;;;11.98;5.90;;;;;;;7.16;100.00;101057.22;5045311;28;20029;-35
2022/12/28 03:36:56;;;;;;;12.25;5.80;;;;;;;7.14;100.00;101069.91;5028991;28;20029;-36
2022/12/28 03:39:41;;;;;;;11.27;5.25;;;;;;;7.16;100.00;101054.53;5031962;28;20029;-37
2022/12/28 03:45:28;;;;;;;8.55;5.25;;;;;;;7.19;100.00;101053.38;5028740;28;20068;-36
2022/12/28 03:47:55;;;;;;;7.68;5.03;;;;;;;7.25;100.00;101042.03;5029248;28;20099;-36
2022/12/28 03:50:21;;;;;;;14.45;5.13;;;;;;;7.22;100.00;101042.34;5029533;28;20052;-34
2022/12/28 03:52:47;;;;;;;7.82;5.13;;;;;;;7.22;100.00;101048.53;5046968;28;20036;-36
2022/12/28 03:55:13;;;;;;;9.95;5.30;;;;;;;7.23;100.00;101054.72;5048110;28;20017;-36
2022/12/28 03:57:39;;;;;;;11.55;5.82;;;;;;;7.24;100.00;101045.69;5048254;28;20071;-36
2022/12/28 04:00:05;;;;;;;15.32;5.00;;;;;;;7.26;100.00;101049.91;5047082;28;20057;-35
2022/12/28 04:02:31;;;;;;;10.13;4.70;;;;;;;7.29;100.00;101043.41;5048434;28;20086;-35
2022/12/28 04:04:56;;;;;;;13.77;5.28;;;;;;;7.30;100.00;101045.09;5053519;28;20037;-36
2022/12/28 04:07:21;;;;;;;13.30;5.22;;;;;;;7.32;100.00;101063.66;5050082;28;20484;-35
2022/12/28 04:09:47;;;;;;;11.70;4.47;;;;;;;7.32;100.00;101048.47;5034288;28;20484;-35
2022/12/28 04:12:13;;;;;;;8.52;4.35;;;;;;;7.36;100.00;101048.97;5051360;28;20090;-35
2022/12/28 04:14:38;;;;;;;10.73;4.97;;;;;;;7.38;100.00;101036.28;5053451;28;20021;-37
2022/12/28 04:17:04;;;;;;;10.55;4.93;;;;;;;7.40;100.00;101045.00;5053432;28;20035;-36
2022/12/28 04:19:29;;;;;;;12.05;4.20;;;;;;;7.42;100.00;101045.66;5053394;28;20021;-36
2022/12/28 04:21:54;;;;;;;7.88;4.22;;;;;;;7.44;100.00;101019.59;5045867;28;20025;-35
2022/12/28 04:24:20;;;;;;;12.25;4.32;;;;;;;7.44;100.00;101028.44;5038990;28;20106;-37
2022/12/28 04:26:45;;;;;;;10.23;4.55;;;;;;;7.46;100.00;101018.44;5053370;28;20106;-36
2022/12/28 04:29:10;;;;;;;9.38;4.43;;;;;;;7.47;100.00;101032.66;5053201;28;20056;-35
2022/12/28 04:31:36;;;;;;;10.35;4.35;;;;;;;7.47;100.00;101017.41;5034765;28;20098;-35
2022/12/28 04:34:01;;;;;;;11.23;4.43;;;;;;;7.48;100.00;101012.94;5041934;28;20052;-36
2022/12/28 04:36:26;;;;;;;6.43;4.00;;;;;;;7.50;100.00;101013.59;5039309;28;20017;-37
2022/12/28 04:38:52;;;;;;;20.08;5.13;;;;;;;7.52;100.00;101016.13;5030490;28;20411;-35
2022/12/28 04:41:17;;;;;;;11.60;4.22;;;;;;;7.51;100.00;101012.59;5046761;28;20112;-36
2022/12/28 04:43:43;;;;;;;7.75;4.15;;;;;;;7.54;100.00;101008.78;5052757;28;20029;-35
2022/12/28 04:46:13;;;;;;;7.95;3.90;;;;;;;7.53;100.00;101012.44;5050781;28;20025;-36
2022/12/28 04:48:39;;;;;;;8.23;3.92;;;;;;;7.56;100.00;101006.78;5053052;28;20381;-36
2022/12/28 04:51:15;;;;;;;7.80;3.72;;;;;;;7.59;100.00;100998.44;5051021;28;20040;-34
2022/12/28 04:53:41;;;;;;;11.73;3.90;;;;;;;7.59;100.00;100993.06;5051126;28;20037;-35
2022/12/28 04:56:08;;;;;;;8.63;3.63;;;;;;;7.59;100.00;101017.19;5053095;28;20150;-37
2022/12/28 04:58:33;;;;;;;10.90;3.78;;;;;;;7.62;100.00;101006.97;5052080;28;20242;-38
2022/12/28 05:01:04;;;;;;;7.70;3.30;;;;;;;7.63;100.00;100997.94;5050647;28;20191;-36
2022/12/28 05:03:29;;;;;;;7.90;3.92;;;;;;;7.63;100.00;101011.31;5051121;28;20032;-35
2022/12/28 05:05:59;;;;;;;10.90;3.65;;;;;;;7.67;100.00;101015.38;5051325;28;20021;-37
2022/12/28 05:08:24;;;;;;;9.57;3.53;;;;;;;7.65;100.00;100993.25;5052174;28;20032;-38
2022/12/28 05:10:49;;;;;;;5.93;3.00;;;;;;;7.66;100.00;100996.78;5050512;28;20056;-36
2022/12/28 05:13:15;;;;;;;14.07;4.18;;;;;;;7.69;100.00;100991.13;5051584;28;20021;-37
2022/12/28 05:15:40;;;;;;;10.90;3.72;;;;;;;7.68;100.00;100974.19;5033987;28;20072;-35
2022/12/28 05:18:05;;;;;;;13.10;4.47;;;;;;;7.69;100.00;100970.53;5032372;28;20071;-38
2022/12/28 05:20:31;;;;;;;10.10;3.75;;;;;;;7.74;100.00;100983.44;5034420;28;20087;-35
2022/12/28 05:22:56;;;;;;;10.10;3.58;;;;;;;7.78;100.00;100992.00;5050601;28;20041;-36
2022/12/28 05:25:21;;;;;;;10.85;3.33;;;;;;;7.81;100.00;100967.56;5049224;28;20075;-38
2022/12/28 05:27:47;;;;;;;9.57;3.33;;;;;;;7.84;100.00;100983.31;5041308;28;20037;-36
2022/12/28 05:30:12;;;;;;;8.95;3.38;;;;;;;7.87;100.00;100991.03;5031760;28;20052;-35
2022/12/28 05:32:37;;;;;;;8.23;3.08;;;;;;;7.85;100.00;100979.66;5040484;28;20060;-36
2022/12/28 05:35:03;;;;;;;6.20;3.42;;;;;;;7.87;100.00;100974.94;5032147;28;20049;-35
2022/12/28 05:37:28;;;;;;;11.93;3.60;;;;;;;7.91;100.00;100970.94;5031925;28;20025;-35
2022/12/28 05:39:53;;;;;;;8.15;3.38;;;;;;;7.95;100.00;100979.50;5032163;28;20030;-36
2022/12/28 05:42:19;;;;;;;10.32;3.42;;;;;;;7.97;100.00;100978.34;5044742;28;20070;-37
2022/12/28 05:44:44;;;;;;;8.23;3.58;;;;;;;7.97;100.00;100978.34;5031766;28;20515;-37
2022/12/28 05:47:09;;;;;;;9.07;3.50;;;;;;;7.96;100.00;100976.66;5032102;28;20453;-39
2022/12/28 05:49:35;;;;;;;22.35;3.67;;;;;;;7.94;100.00;100984.03;5031015;28;20029;-37
2022/12/28 05:52:00;;;;;;;6.18;3.85;;;;;;;7.93;100.00;100977.00;5038305;28;20115;-38
2022/12/28 05:54:25;;;;;;;14.93;3.60;;;;;;;7.94;100.00;100973.31;5030984;28;20452;-36
2022/12/28 05:56:51;;;;;;;9.40;3.60;;;;;;;7.93;100.00;100968.97;5031719;28;20138;-38
2022/12/28 05:59:16;;;;;;;6.82;3.85;;;;;;;7.93;100.00;100981.53;5029960;28;20039;-36
2022/12/28 06:01:42;;;;;;;10.25;3.55;;;;;;;7.95;100.00;100985.69;5029763;28;20029;-37
2022/12/28 06:04:16;;;;;;;7.18;3.60;;;;;;;7.95;100.00;100969.59;5034355;28;20485;-38
2022/12/28 06:06:42;;;;;;;11.25;3.53;;;;;;;7.98;100.00;100958.59;5029377;28;20044;-37
2022/12/28 06:09:07;;;;;;;11.30;4.22;;;;;;;7.96;100.00;100968.63;5029281;28;20033;-36
2022/12/28 06:11:32;;;;;;;9.25;3.30;;;;;;;7.96;100.00;100965.13;5039673;28;20071;-38
2022/12/28 06:13:58;;;;;;;7.88;3.70;;;;;;;7.94;100.00;100951.88;5030849;28;20500;-36
2022/12/28 06:16:26;;;;;;;11.05;3.88;;;;;;;7.92;100.00;100937.78;5030262;28;20420;-38
2022/12/28 06:18:52;;;;;;;7.82;4.10;;;;;;;7.93;100.00;100960.91;5041558;28;20528;-37
2022/12/28 06:21:20;;;;;;;12.35;4.28;;;;;;;7.93;100.00;100947.53;5034091;28;20040;-38
2022/12/28 06:23:46;;;;;;;21.80;5.50;;;;;;;7.94;100.00;100957.22;5036046;28;20049;-36
2022/12/28 06:26:13;;;;;;;17.83;3.85;;;;;;;7.97;100.00;100946.16;5035936;28;20166;-38
2022/12/28 06:28:39;;;;;;;9.20;4.22;;;;;;;7.97;100.00;100967.63;5029193;28;20076;-36
2022/12/28 06:31:17;;;;;;;10.52;3.95;;;;;;;7.96;100.00;100949.88;5044458;28;20488;-36
2022/12/28 06:33:43;;;;;;;5.95;3.97;;;;;;;7.98;100.00;100963.94;5029098;28;20029;-35
2022/12/28 06:36:12;;;;;;;12.55;4.32;;;;;;;7.95;100.00;100961.56;5011138;28;20029;-36
2022/12/28 06:38:38;;;;;;;4.85;4.20;;;;;;;7.95;100.00;100950.00;5022695;28;20037;-36
2022/12/28 06:41:04;;;;;;;10.73;4.72;;;;;;;7.95;100.00;100972.28;5036394;28;20085;-36
2022/12/28 06:43:37;;;;;;;6.57;4.68;;;;;;;7.96;100.00;100949.88;5036175;28;20021;-34
2022/12/28 06:46:03;;;;;;;10.23;4.70;;;;;;;7.95;100.00;100952.69;5047683;28;20024;-36
2022/12/28 06:48:29;;;;;;;15.15;5.20;;;;;;;7.94;100.00;100949.19;5048697;28;20043;-35
2022/12/28 06:50:55;;;;;;;9.35;5.07;;;;;;;7.95;100.00;100940.13;5048854;28;20021;-37
2022/12/28 06:53:21;;;;;;;10.85;5.10;;;;;;;7.97;100.00;100967.63;5047591;28;20067;-35
2022/12/28 06:55:57;;;;;;;13.57;4.60;;;;;;;7.98;100.00;100937.16;5048335;28;20090;-35
2022/12/28 06:58:23;;;;;;;14.57;5.60;;;;;;;7.99;100.00;100944.19;5046809;28;20072;-38
2022/12/28 07:00:49;;;;;;;12.50;5.35;;;;;;;7.99;100.00;100936.13;5047376;28;20033;-35
2022/12/28 07:03:14;;;;;;;14.10;6.18;;;;;;;7.99;100.00;100944.19;5047581;28;20444;-38
2022/12/28 07:05:39;;;;;;;7.97;4.88;;;;;;;8.00;100.00;100948.53;5044839;28;20021;-35
2022/12/28 07:08:05;;;;;;;15.45;5.35;;;;;;;8.03;100.00;100947.38;5042347;28;20021;-36
2022/12/28 07:10:32;;;;;;;9.23;5.28;;;;;;;8.02;100.00;100927.75;5037915;28;20027;-38
2022/12/28 07:12:58;;;;;;;10.07;4.78;;;;;;;8.03;100.00;100925.91;5048520;28;20575;-35
2022/12/28 07:15:23;;;;;;;9.63;5.15;;;;;;;8.04;100.00;100930.28;5032353;28;20076;-37
2022/12/28 07:17:49;;;;;;;10.00;5.03;;;;;;;8.06;100.00;100934.50;5033863;28;20480;-35
2022/12/28 07:20:14;;;;;;;14.02;5.30;;;;;;;8.06;100.00;100941.69;5047867;28;20036;-34
2022/12/28 07:22:39;;;;;;;11.38;4.38;;;;;;;8.06;100.00;100929.13;5043845;28;20036;-37
2022/12/28 07:25:05;;;;;;;11.73;4.72;;;;;;;8.08;100.00;100942.34;5036084;28;20467;-35
2022/12/28 07:27:31;;;;;;;9.93;4.30;;;;;;;8.09;100.00;100939.53;5048239;28;20052;-36
2022/12/28 07:29:56;;;;;;;11.32;4.07;;;;;;;8.13;100.00;100929.31;5034686;28;20219;-36
2022/12/28 07:32:21;;;;;;;7.50;4.00;;;;;;;8.21;100.00;100925.81;5028552;28;20041;-35
2022/12/28 07:34:47;;;;;;;9.25;3.97;;;;;;;8.22;100.00;100930.19;5033701;28;20155;-35
2022/12/28 07:37:12;;;;;;;14.95;5.05;;;;;;;8.24;100.00;100928.16;5027707;28;20389;-36
2022/12/28 07:39:37;;;;;;;6.75;3.40;;;;;;;8.30;100.00;100930.19;5027939;28;20138;-36
2022/12/28 07:42:05;;;;;;;11.60;4.07;;;;;;;8.31;100.00;100926.50;5036776;28;20170;-35
2022/12/28 07:44:31;;;;;;;8.85;3.50;;;;;;;8.33;100.00;100929.84;5048214;28;20029;-38
2022/12/28 07:46:56;;;;;;;10.55;3.83;;;;;;;8.35;100.00;100912.59;5038912;28;20025;-38
2022/12/28 07:49:22;;;;;;;11.68;4.28;;;;;;;8.34;100.00;100915.44;5040609;28;20107;-37
2022/12/28 07:51:48;;;;;;;10.40;4.00;;;;;;;8.34;100.00;100910.91;5041544;28;20033;-35
2022/12/28 07:54:13;;;;;;;8.77;4.28;;;;;;;8.36;100.00;100929.53;5046729;28;20085;-36
2022/12/28 07:56:39;;;;;;;11.88;3.85;;;;;;;8.40;100.00;100930.06;5048046;28;20387;-38
2022/12/28 07:59:05;;;;;;;6.30;3.13;;;;;;;8.38;100.00;100927.53;5047781;28;20044;-35
2022/12/28 08:01:32;;;;;;;10.50;3.58;;;;;;;8.42;100.00;100933.41;5048077;28;20480;-38
2022/12/28 08:04:00;;;;;;;8.77;3.70;;;;;;;8.45;100.00;100928.56;5047930;28;20036;-34
2022/12/28 08:06:27;;;;;;;6.55;3.50;;;;;;;8.44;100.00;100929.56;5045698;28;20040;-36
2022/12/28 08:08:54;;;;;;;7.97;4.15;;;;;;;8.45;100.00;100928.56;5040624;28;20057;-37
2022/12/28 08:11:24;;;;;;;8.25;3.80;;;;;;;8.46;100.00;100924.03;5028023;28;20116;-37
2022/12/28 08:13:51;;;;;;;10.45;4.05;;;;;;;8.45;100.00;100923.22;5026487;28;20183;-35
2022/12/28 08:16:18;;;;;;;10.07;3.83;;;;;;;8.44;100.00;100924.19;5027905;28;20037;-34
2022/12/28 08:18:44;;;;;;;12.30;3.45;;;;;;;8.43;100.00;100919.84;5042729;28;20169;-35
2022/12/28 08:21:15;;;;;;;10.20;3.70;;;;;;;8.45;100.00;100923.22;5027480;28;20068;-34
2022/12/28 08:23:41;;;;;;;9.80;3.63;;;;;;;8.45;100.00;100936.63;5039411;28;20590;-36
2022/12/28 08:26:15;;;;;;;9.75;3.20;;;;;;;8.48;100.00;100914.81;5036951;28;20033;-36
2022/12/28 08:28:41;;;;;;;10.60;3.50;;;;;;;8.46;100.00;100922.19;5038100;28;20040;-36
2022/12/28 08:31:08;;;;;;;5.57;2.80;;;;;;;8.47;100.00;100926.53;5030912;28;20025;-37
2022/12/28 08:33:35;;;;;;;10.55;3.58;;;;;;;8.45;100.00;100927.72;5031625;28;20036;-36
2022/12/28 08:36:00;;;;;;;8.18;3.70;;;;;;;8.46;100.00;100922.19;5045286;28;20060;-37
2022/12/28 08:38:25;;;;;;;7.95;2.95;;;;;;;8.47;100.00;100917.66;5043251;28;20174;-35
2022/12/28 08:40:59;;;;;;;6.15;3.00;;;;;;;8.50;100.00;100925.38;5033942;28;20106;-34
2022/12/28 08:43:26;;;;;;;6.43;3.15;;;;;;;8.48;100.00;100917.50;5036274;28;20094;-35
2022/12/28 08:46:11;;;;;;;7.53;3.20;;;;;;;8.49;100.00;100908.44;5034283;28;20052;-36
2022/12/28 08:48:36;;;;;;;6.13;2.97;;;;;;;8.49;100.00;100908.44;5045812;28;20036;-38
2022/12/28 08:51:05;;;;;;;5.57;3.17;;;;;;;8.49;100.00;100907.63;5042804;28;20036;-38
2022/12/28 08:53:30;;;;;;;6.90;2.90;;;;;;;8.51;100.00;100922.53;5051908;28;20518;-38
2022/12/28 08:56:05;;;;;;;7.65;2.70;;;;;;;8.50;100.00;100899.38;5037359;28;20025;-37
2022/12/28 08:58:31;;;;;;;8.27;2.85;;;;;;;8.50;100.00;100899.38;5051217;28;20025;-36
2022/12/28 09:00:56;;;;;;;6.60;3.08;;;;;;;8.49;100.00;100896.88;5040050;28;20040;-36
2022/12/28 09:03:21;;;;;;;8.07;3.17;;;;;;;8.48;100.00;100897.91;5049906;28;20115;-36
2022/12/28 09:05:47;;;;;;;4.43;3.00;;;;;;;8.47;100.00;100896.22;5051148;28;20040;-36
2022/12/28 09:08:13;;;;;;;8.88;2.80;;;;;;;8.46;100.00;100891.84;5040490;28;20061;-37
2022/12/28 09:10:38;;;;;;;7.28;2.80;;;;;;;8.45;100.00;100899.06;5032432;28;20100;-36
2022/12/28 09:13:03;;;;;;;5.97;2.67;;;;;;;8.46;100.00;100900.75;5048521;28;20052;-37
2022/12/28 09:15:29;;;;;;;7.47;3.50;;;;;;;8.49;100.00;100900.41;5052244;28;20044;-39
2022/12/28 09:17:54;;;;;;;3.60;2.40;;;;;;;8.51;100.00;100893.03;5051719;28;20410;-38
2022/12/28 09:20:19;;;;;;;8.15;3.42;;;;;;;8.56;100.00;100904.09;5045508;28;20033;-36
2022/12/28 09:22:45;;;;;;;6.53;2.80;;;;;;;8.59;100.00;100897.56;5039285;28;20354;-38
2022/12/28 09:25:10;;;;;;;5.03;2.25;;;;;;;8.61;100.00;100895.56;5041105;28;20044;-37
2022/12/28 09:27:35;;;;;;;8.05;2.42;;;;;;;8.62;100.00;100891.84;5030888;28;20030;-37
2022/12/28 09:30:02;;;;;;;5.30;2.33;;;;;;;8.62;100.00;100899.91;5035995;28;20405;-36
2022/12/28 09:32:27;;;;;;;7.35;2.50;;;;;;;8.65;100.00;100875.41;5035517;28;20029;-36
2022/12/28 09:34:52;;;;;;;5.70;2.63;;;;;;;8.64;100.00;100891.69;5042346;28;20320;-37
2022/12/28 09:37:18;;;;;;;8.20;3.47;;;;;;;8.63;100.00;100888.16;5042086;28;20118;-37
2022/12/28 09:39:43;;;;;;;7.40;2.25;;;;;;;8.66;100.00;100884.28;5030178;28;20033;-38
2022/12/28 09:42:35;;;;;;;7.70;2.75;;;;;;;8.67;100.00;100883.31;5041193;28;20036;-35
2022/12/28 09:45:05;;;;;;;8.93;2.63;;;;;;;8.69;100.00;100889.31;5044035;28;20049;-35
2022/12/28 09:47:36;;;;;;;7.85;2.90;;;;;;;8.68;100.00;100882.28;5035471;28;20025;-35
2022/12/28 09:50:11;;;;;;;5.60;2.33;;;;;;;8.70;100.00;100885.66;5049881;28;20056;-37
2022/12/28 09:52:51;;;;;;;8.15;2.50;;;;;;;8.71;100.00;100884.63;5041771;28;20033;-36
2022/12/28 09:55:18;;;;;;;8.13;2.47;;;;;;;8.76;100.00;100866.19;5036600;28;20130;-38
2022/12/28 09:57:52;;;;;;;15.02;2.63;;;;;;;8.78;100.00;100880.28;5030204;28;20052;-36
2022/12/28 10:00:20;;;;;;;16.30;2.53;;;;;;;8.76;100.00;100872.38;5029383;28;20414;-38
2022/12/28 10:02:50;;;;;;;8.82;2.60;;;;;;;8.78;100.00;100874.91;5045517;28;20032;-36
2022/12/28 10:05:15;;;;;;;6.70;2.55;;;;;;;8.77;100.00;100878.59;5043786;28;20381;-37
2022/12/28 10:07:41;;;;;;;3.20;1.88;;;;;;;8.79;100.00;100880.13;5030025;28;20014;-36
2022/12/28 10:10:06;;;;;;;8.50;2.30;;;;;;;8.75;100.00;100885.97;5029578;28;20025;-38
2022/12/28 10:12:32;;;;;;;7.80;2.47;;;;;;;8.69;100.00;100876.78;5035955;28;20029;-36
2022/12/28 10:14:58;;;;;;;11.48;2.30;;;;;;;8.62;100.00;100874.94;5032335;28;20033;-39
2022/12/28 10:17:29;;;;;;;10.35;2.78;;;;;;;8.57;100.00;100878.94;5032467;28;20033;-37
2022/12/28 10:19:56;;;;;;;9.38;2.67;;;;;;;8.50;100.00;100877.91;5034147;28;20025;-37
2022/12/28 10:22:23;;;;;;;9.23;2.42;;;;;;;8.49;100.00;100887.00;5047610;28;20032;-38
2022/12/28 10:24:48;;;;;;;8.27;2.75;;;;;;;8.45;100.00;100882.97;5036122;28;20037;-36
2022/12/28 10:27:21;;;;;;;10.30;3.40;;;;;;;8.41;100.00;100873.56;5044432;28;20021;-36
2022/12/28 10:29:49;;;;;;;11.88;3.15;;;;;;;8.37;100.00;100877.56;5042331;28;20151;-37
2022/12/28 10:32:14;;;;;;;8.00;3.00;;;;;;;8.36;100.00;100890.13;5030485;28;20030;-37
2022/12/28 10:35:00;;;;;;;8.63;3.05;;;;;;;8.34;100.00;100878.72;5029455;28;20111;-37
2022/12/28 10:37:29;;;;;;;9.07;3.17;;;;;;;8.32;100.00;100869.16;5030443;28;20112;-35
2022/12/28 10:39:58;;;;;;;8.02;3.30;;;;;;;8.34;100.00;100867.16;5028915;28;20026;-36
2022/12/28 10:42:39;;;;;;;9.20;3.92;;;;;;;8.31;100.00;100884.41;5031279;28;20064;-36
2022/12/28 10:45:06;;;;;;;10.23;3.90;;;;;;;8.31;100.00;100870.19;5030355;28;20087;-37
2022/12/28 10:47:42;;;;;;;7.80;3.42;;;;;;;8.29;100.00;100864.13;5029402;28;20030;-38
2022/12/28 10:50:38;;;;;;;9.55;4.10;;;;;;;8.28;100.00;100867.84;5031099;28;20022;-39
2022/12/28 10:53:03;;;;;;;7.47;4.03;;;;;;;8.25;100.00;100855.59;5029470;28;20522;-39
2022/12/28 10:55:32;;;;;;;15.20;4.25;;;;;;;8.20;100.00;100854.44;5030774;28;20061;-40
2022/12/28 10:58:22;;;;;;;6.75;3.78;;;;;;;8.19;100.00;100864.31;5029380;28;20108;-41
2022/12/28 11:01:27;;;;;;;12.30;4.07;;;;;;;8.13;100.00;100855.06;5029509;28;20108;-41
2022/12/28 11:03:54;;;;;;;12.88;4.40;;;;;;;8.12;100.00;100853.41;5019567;28;20139;-42
2022/12/28 11:06:22;;;;;;;10.85;4.68;;;;;;;8.11;100.00;100856.28;5030886;28;20101;-42
2022/12/28 11:09:05;;;;;;;10.13;5.05;;;;;;;8.08;100.00;100854.75;5030785;28;20091;-42
2022/12/28 11:11:33;;;;;;;10.85;4.70;;;;;;;8.07;100.00;100854.91;5030008;28;20083;-42
2022/12/28 11:14:02;;;;;;;16.95;5.65;;;;;;;8.02;100.00;100836.63;5030880;28;20415;-41
2022/12/28 11:16:31;;;;;;;12.68;5.18;;;;;;;8.00;100.00;100833.28;5030684;28;20083;-41
2022/12/28 11:18:57;;;;;;;9.32;5.30;;;;;;;8.00;100.00;100838.63;5029333;28;20036;-42
2022/12/28 11:21:22;;;;;;;13.60;5.47;;;;;;;7.98;100.00;100837.13;5029528;28;20476;-41
2022/12/28 11:23:49;;;;;;;14.23;5.50;;;;;;;7.98;100.00;100834.44;5030952;28;20318;-41
2022/12/28 11:26:15;;;;;;;10.38;5.43;;;;;;;7.96;100.00;100831.13;5030982;28;20099;-42
2022/12/28 11:28:41;;;;;;;11.85;5.72;;;;;;;7.95;100.00;100824.06;5029296;28;20525;-41
2022/12/28 11:31:17;;;;;;;10.43;5.00;;;;;;;7.94;100.00;100823.22;5030558;28;20088;-39
2022/12/28 11:33:44;;;;;;;11.80;4.78;;;;;;;7.95;100.00;100824.91;5029071;28;20041;-39
2022/12/28 11:36:21;;;;;;;9.55;4.50;;;;;;;7.95;100.00;100822.22;5029124;28;20030;-42
2022/12/28 11:38:49;;;;;;;12.20;4.60;;;;;;;7.93;100.00;100834.97;5028921;28;20083;-42
2022/12/28 11:41:24;;;;;;;9.00;4.07;;;;;;;7.96;100.00;100826.59;5030542;28;20049;-41
2022/12/28 11:43:50;;;;;;;11.68;4.00;;;;;;;7.94;100.00;100833.94;5030157;28;20033;-42
2022/12/28 11:46:21;;;;;;;13.20;4.28;;;;;;;7.91;100.00;100829.75;5030229;28;20040;-41
2022/12/28 11:49:00;;;;;;;4.18;3.25;;;;;;;7.92;100.00;100811.84;5029984;28;20101;-41